Time,TemperatureF,DewpointF,PressureIn,WindDirection,WindDirectionDegrees,WindSpeedMPH,WindSpeedGustMPH,Humidity,HourlyPrecipIn,Conditions,Clouds,dailyrainin,SoftwareType,DateUTC
2013-01-01 00:03:00,42.0,31.0,30.03,South,170,3.0,3.0,64,-99.99,,,-99.99,,2013-01-01 05:03:00,
2013-01-01 00:12:00,42.0,31.0,30.03,South,170,3.0,3.0,64,-99.99,,,-99.99,,2013-01-01 05:12:00,
2013-01-01 00:22:00,43.0,32.0,30.04,SSE,155,0.0,4.0,64,-99.99,,,-99.99,,2013-01-01 05:22:00,
2013-01-01 00:33:00,43.0,32.0,30.03,SSE,155,0.0,1.0,64,-99.99,,,-99.99,,2013-01-01 05:33:00,
2013-01-01 00:42:00,43.0,32.0,30.03,SSE,155,0.0,1.0,64,-99.99,,,-99.99,,2013-01-01 05:42:00,
2013-01-01 00:53:00,43.0,32.0,30.03,SSE,155,0.0,0.0,64,-99.99,,,-99.99,,2013-01-01 05:53:00,
2013-01-01 01:02:00,42.0,31.0,30.01,SSE,155,0.0,0.0,65,-99.99,,,-99.99,,2013-01-01 06:02:00,
2013-01-01 01:12:00,42.0,31.0,30.01,SSE,155,0.0,0.0,65,-99.99,,,-99.99,,2013-01-01 06:12:00,
2013-01-01 01:22:00,42.0,31.0,30.02,SSE,155,0.0,0.0,65,-99.99,,,-99.99,,2013-01-01 06:22:00,
2013-01-01 01:32:00,42.0,31.0,30.01,SSE,155,0.0,0.0,65,-99.99,,,-99.99,,2013-01-01 06:32:00,
2013-01-01 01:42:00,42.0,31.0,30.01,SSE,155,0.0,0.0,65,-99.99,,,-99.99,,2013-01-01 06:42:00,
2013-01-01 01:52:00,43.0,32.0,30.01,SSE,155,0.0,0.0,64,-99.99,,,-99.99,,2013-01-01 06:52:00,
2013-01-01 02:02:00,42.0,31.0,29.99,SSE,155,0.0,0.0,66,-99.99,,,-99.99,,2013-01-01 07:02:00,
2013-01-01 02:12:00,42.0,33.0,29.99,SSE,155,0.0,0.0,69,-99.99,,,-99.99,,2013-01-01 07:12:00,
2013-01-01 02:22:00,42.0,33.0,29.99,SSE,155,0.0,0.0,69,-99.99,,,-99.99,,2013-01-01 07:22:00,
2013-01-01 02:32:00,42.0,33.0,29.99,SSE,155,0.0,0.0,69,-99.99,,,-99.99,,2013-01-01 07:32:00,
2013-01-01 02:42:00,42.0,33.0,29.99,SSE,155,0.0,0.0,69,-99.99,,,-99.99,,2013-01-01 07:42:00,
2013-01-01 02:53:00,42.0,33.0,30.00,SSE,155,0.0,0.0,70,-99.99,,,-99.99,,2013-01-01 07:53:00,
2013-01-01 03:02:00,41.0,33.0,30.01,SSE,155,0.0,0.0,73,-99.99,,,-99.99,,2013-01-01 08:02:00,
2013-01-01 03:12:00,41.0,33.0,30.01,SSE,155,0.0,0.0,73,-99.99,,,-99.99,,2013-01-01 08:12:00,
2013-01-01 03:22:00,41.0,33.0,30.01,SSE,155,0.0,0.0,74,-99.99,,,-99.99,,2013-01-01 08:22:00,
2013-01-01 03:32:00,42.0,33.0,30.00,SSE,155,0.0,0.0,69,-99.99,,,-99.99,,2013-01-01 08:32:00,
2013-01-01 03:42:00,42.0,33.0,30.00,SSE,155,0.0,0.0,69,-99.99,,,-99.99,,2013-01-01 08:42:00,
2013-01-01 03:53:00,42.0,33.0,30.00,SSE,155,0.0,0.0,69,-99.99,,,-99.99,,2013-01-01 08:53:00,
2013-01-01 04:02:00,42.0,32.0,30.00,SSE,155,0.0,0.0,68,-99.99,,,-99.99,,2013-01-01 09:02:00,
2013-01-01 04:12:00,42.0,32.0,30.00,SSE,155,0.0,0.0,68,-99.99,,,-99.99,,2013-01-01 09:12:00,
2013-01-01 04:22:00,42.0,32.0,29.99,SSE,155,0.0,0.0,68,-99.99,,,-99.99,,2013-01-01 09:22:00,
2013-01-01 04:32:00,42.0,32.0,30.00,SSE,162,2.0,0.0,68,-99.99,,,-99.99,,2013-01-01 09:32:00,
2013-01-01 04:42:00,42.0,32.0,30.00,SSE,162,2.0,0.0,68,-99.99,,,-99.99,,2013-01-01 09:42:00,
2013-01-01 04:52:00,42.0,33.0,30.01,ESE,106,0.0,2.0,70,-99.99,,,-99.99,,2013-01-01 09:52:00,
2013-01-01 05:02:00,42.0,34.0,30.01,East,93,0.0,0.0,72,-99.99,,,-99.99,,2013-01-01 10:02:00,
2013-01-01 05:12:00,42.0,34.0,30.01,East,93,0.0,0.0,72,-99.99,,,-99.99,,2013-01-01 10:12:00,
2013-01-01 05:22:00,42.0,33.0,30.01,East,93,0.0,0.0,70,-99.99,,,-99.99,,2013-01-01 10:22:00,
2013-01-01 05:33:00,44.0,28.0,30.00,SW,232,2.0,8.0,54,-99.99,,,-99.99,,2013-01-01 10:33:00,
2013-01-01 05:42:00,44.0,28.0,30.00,SW,232,2.0,8.0,54,-99.99,,,-99.99,,2013-01-01 10:42:00,
2013-01-01 05:53:00,44.0,31.0,29.99,ESE,108,0.0,5.0,59,-99.99,,,-99.99,,2013-01-01 10:53:00,
2013-01-01 06:02:00,44.0,32.0,29.97,East,97,3.0,6.0,62,-99.99,,,-99.99,,2013-01-01 11:02:00,
2013-01-01 06:12:00,44.0,32.0,29.97,East,97,3.0,6.0,62,-99.99,,,-99.99,,2013-01-01 11:12:00,
2013-01-01 06:23:00,43.0,33.0,29.96,NE,56,0.0,0.0,67,-99.99,,,-99.99,,2013-01-01 11:23:00,
2013-01-01 06:33:00,42.0,32.0,29.97,ESE,104,0.0,0.0,68,-99.99,,,-99.99,,2013-01-01 11:33:00,
2013-01-01 06:43:00,42.0,32.0,29.97,ESE,104,0.0,0.0,68,-99.99,,,-99.99,,2013-01-01 11:43:00,
2013-01-01 06:53:00,42.0,33.0,29.97,SE,131,0.0,0.0,69,-99.99,,,-99.99,,2013-01-01 11:53:00,
2013-01-01 07:03:00,42.0,37.0,29.97,SE,131,0.0,0.0,83,-99.99,,,-99.99,,2013-01-01 12:03:00,
2013-01-01 07:12:00,42.0,37.0,29.97,SE,131,0.0,0.0,83,-99.99,,,-99.99,,2013-01-01 12:12:00,
2013-01-01 07:22:00,41.0,37.0,29.97,ENE,77,0.0,0.0,85,-99.99,,,-99.99,,2013-01-01 12:22:00,
2013-01-01 07:33:00,40.0,37.0,29.98,South,169,0.0,4.0,88,-99.99,,,-99.99,,2013-01-01 12:33:00,
2013-01-01 07:43:00,40.0,37.0,29.98,South,169,0.0,4.0,88,-99.99,,,-99.99,,2013-01-01 12:43:00,
2013-01-01 07:53:00,40.0,37.0,29.98,SSE,159,4.0,6.0,90,-99.99,,,-99.99,,2013-01-01 12:53:00,
2013-01-01 08:03:00,40.0,37.0,29.98,South,172,2.0,6.0,89,-99.99,,,-99.99,,2013-01-01 13:03:00,
2013-01-01 08:12:00,40.0,37.0,29.98,South,172,2.0,6.0,89,-99.99,,,-99.99,,2013-01-01 13:12:00,
2013-01-01 08:22:00,40.0,36.0,29.99,East,101,2.0,2.0,86,-99.99,,,-99.99,,2013-01-01 13:22:00,
2013-01-01 08:33:00,40.0,37.0,29.98,East,99,0.0,0.0,88,-99.99,,,-99.99,,2013-01-01 13:33:00,
2013-01-01 08:43:00,40.0,37.0,29.98,East,99,0.0,0.0,88,-99.99,,,-99.99,,2013-01-01 13:43:00,
2013-01-01 08:53:00,40.0,37.0,29.98,East,99,0.0,0.0,88,-99.99,,,-99.99,,2013-01-01 13:53:00,
2013-01-01 09:02:00,40.0,37.0,29.97,East,99,0.0,0.0,89,-99.99,,,-99.99,,2013-01-01 14:02:00,
2013-01-01 09:12:00,40.0,37.0,29.97,East,99,0.0,0.0,89,-99.99,,,-99.99,,2013-01-01 14:12:00,
2013-01-01 09:22:00,41.0,38.0,29.98,East,99,0.0,0.0,90,-99.99,,,-99.99,,2013-01-01 14:22:00,
2013-01-01 09:32:00,41.0,37.0,29.98,South,176,1.0,3.0,87,-99.99,,,-99.99,,2013-01-01 14:32:00,
2013-01-01 09:42:00,41.0,37.0,29.98,South,176,1.0,3.0,87,-99.99,,,-99.99,,2013-01-01 14:42:00,
2013-01-01 09:53:00,42.0,39.0,29.96,SSE,156,2.0,0.0,88,-99.99,,,-99.99,,2013-01-01 14:53:00,
2013-01-01 10:03:00,43.0,39.0,29.97,SSE,155,2.0,5.0,85,-99.99,,,-99.99,,2013-01-01 15:03:00,
2013-01-01 10:12:00,43.0,39.0,29.97,SSE,155,2.0,5.0,85,-99.99,,,-99.99,,2013-01-01 15:12:00,
2013-01-01 10:22:00,44.0,39.0,29.98,South,182,0.0,1.0,83,-99.99,,,-99.99,,2013-01-01 15:22:00,
2013-01-01 10:33:00,44.0,38.0,29.97,South,186,2.0,6.0,79,-99.99,,,-99.99,,2013-01-01 15:33:00,
2013-01-01 10:43:00,44.0,38.0,29.97,South,186,2.0,6.0,79,-99.99,,,-99.99,,2013-01-01 15:43:00,
2013-01-01 10:53:00,45.0,37.0,29.95,SSE,162,5.0,7.0,74,-99.99,,,-99.99,,2013-01-01 15:53:00,
2013-01-01 11:02:00,45.0,37.0,29.93,SE,135,5.0,14.0,74,-99.99,,,-99.99,,2013-01-01 16:02:00,
2013-01-01 11:12:00,45.0,37.0,29.93,SE,135,5.0,14.0,74,-99.99,,,-99.99,,2013-01-01 16:12:00,
2013-01-01 11:22:00,45.0,38.0,29.95,SSW,200,3.0,8.0,75,-99.99,,,-99.99,,2013-01-01 16:22:00,
2013-01-01 11:33:00,45.0,37.0,29.94,SSW,207,6.0,8.0,74,-99.99,,,-99.99,,2013-01-01 16:33:00,
2013-01-01 11:43:00,45.0,37.0,29.94,SSW,207,6.0,8.0,74,-99.99,,,-99.99,,2013-01-01 16:43:00,
2013-01-01 11:52:00,45.0,37.0,29.93,SSW,211,3.0,6.0,74,-99.99,,,-99.99,,2013-01-01 16:52:00,
2013-01-01 12:02:00,46.0,37.0,29.95,SSW,193,3.0,7.0,71,-99.99,,,-99.99,,2013-01-01 17:02:00,
2013-01-01 12:12:00,46.0,37.0,29.95,SSW,193,3.0,7.0,71,-99.99,,,-99.99,,2013-01-01 17:12:00,
2013-01-01 12:23:00,46.0,36.0,29.94,South,189,6.0,8.0,68,-99.99,,,-99.99,,2013-01-01 17:23:00,
2013-01-01 12:33:00,47.0,38.0,29.89,SE,125,6.0,11.0,70,-99.99,,,-99.99,,2013-01-01 17:33:00,
2013-01-01 12:43:00,47.0,38.0,29.89,SE,125,6.0,11.0,70,-99.99,,,-99.99,,2013-01-01 17:43:00,
2013-01-01 12:53:00,48.0,38.0,29.89,SSE,152,7.0,13.0,69,-99.99,,,-99.99,,2013-01-01 17:53:00,
2013-01-01 13:03:00,48.0,38.0,29.88,SSW,203,4.0,10.0,68,-99.99,,,-99.99,,2013-01-01 18:03:00,
2013-01-01 13:13:00,48.0,38.0,29.88,SSW,203,4.0,10.0,68,-99.99,,,-99.99,,2013-01-01 18:13:00,
2013-01-01 13:23:00,48.0,38.0,29.92,SW,225,7.0,11.0,67,-99.99,,,-99.99,,2013-01-01 18:23:00,
2013-01-01 13:33:00,48.0,38.0,29.90,South,179,5.0,6.0,69,-99.99,,,-99.99,,2013-01-01 18:33:00,
2013-01-01 13:43:00,48.0,38.0,29.90,South,179,5.0,6.0,69,-99.99,,,-99.99,,2013-01-01 18:43:00,
2013-01-01 13:52:00,48.0,38.0,29.90,South,179,5.0,6.0,69,-99.99,,,-99.99,,2013-01-01 18:52:00,
2013-01-01 14:02:00,49.0,40.0,29.85,SE,128,5.0,9.0,71,-99.99,,,-99.99,,2013-01-01 19:02:00,
2013-01-01 14:12:00,49.0,40.0,29.85,SE,128,5.0,9.0,71,-99.99,,,-99.99,,2013-01-01 19:12:00,
2013-01-01 14:22:00,48.0,40.0,29.87,South,176,1.0,11.0,73,-99.99,,,-99.99,,2013-01-01 19:22:00,
2013-01-01 14:33:00,48.0,40.0,29.87,ENE,73,2.0,7.0,74,-99.99,,,-99.99,,2013-01-01 19:33:00,
2013-01-01 14:43:00,48.0,40.0,29.87,ENE,73,2.0,7.0,74,-99.99,,,-99.99,,2013-01-01 19:43:00,
2013-01-01 14:53:00,48.0,40.0,29.88,South,180,6.0,12.0,74,-99.99,,,-99.99,,2013-01-01 19:53:00,
2013-01-01 15:02:00,48.0,41.0,29.87,South,169,7.0,13.0,76,-99.99,,,-99.99,,2013-01-01 20:02:00,
2013-01-01 15:13:00,48.0,41.0,29.87,South,169,7.0,13.0,76,-99.99,,,-99.99,,2013-01-01 20:13:00,
2013-01-01 15:23:00,48.0,41.0,29.86,SSE,152,6.0,11.0,76,-99.99,,,-99.99,,2013-01-01 20:23:00,
2013-01-01 15:32:00,48.0,41.0,29.85,SE,141,6.0,8.0,78,-99.99,,,-99.99,,2013-01-01 20:32:00,
2013-01-01 15:42:00,48.0,41.0,29.85,SE,141,6.0,8.0,78,-99.99,,,-99.99,,2013-01-01 20:42:00,
2013-01-01 15:52:00,48.0,41.0,29.87,SSW,194,5.0,8.0,78,-99.99,,,-99.99,,2013-01-01 20:52:00,
2013-01-01 16:03:00,48.0,42.0,29.88,South,176,0.0,5.0,79,-99.99,,,-99.99,,2013-01-01 21:03:00,
2013-01-01 16:13:00,48.0,42.0,29.88,South,176,0.0,5.0,79,-99.99,,,-99.99,,2013-01-01 21:13:00,
2013-01-01 16:22:00,48.0,42.0,29.88,South,176,3.0,6.0,80,-99.99,,,-99.99,,2013-01-01 21:22:00,
2013-01-01 16:33:00,49.0,43.0,29.88,South,180,3.0,6.0,80,-99.99,,,-99.99,,2013-01-01 21:33:00,
2013-01-01 16:42:00,49.0,43.0,29.88,South,180,3.0,6.0,80,-99.99,,,-99.99,,2013-01-01 21:42:00,
2013-01-01 16:53:00,48.0,42.0,29.88,SSE,158,2.0,6.0,81,-99.99,,,-99.99,,2013-01-01 21:53:00,
2013-01-01 17:03:00,48.0,42.0,29.88,SSE,151,2.0,4.0,81,-99.99,,,-99.99,,2013-01-01 22:03:00,
2013-01-01 17:12:00,48.0,42.0,29.88,SSE,151,2.0,4.0,81,-99.99,,,-99.99,,2013-01-01 22:12:00,
2013-01-01 17:22:00,48.0,43.0,29.88,SE,142,3.0,5.0,82,-99.99,,,-99.99,,2013-01-01 22:22:00,
2013-01-01 17:33:00,48.0,43.0,29.88,South,173,2.0,4.0,83,-99.99,,,-99.99,,2013-01-01 22:33:00,
2013-01-01 17:42:00,48.0,43.0,29.88,South,173,2.0,4.0,83,-99.99,,,-99.99,,2013-01-01 22:42:00,
2013-01-01 17:52:00,48.0,43.0,29.89,South,187,0.0,4.0,84,-99.99,,,-99.99,,2013-01-01 22:52:00,
2013-01-01 18:03:00,48.0,43.0,29.90,South,187,0.0,0.0,84,-99.99,,,-99.99,,2013-01-01 23:03:00,
2013-01-01 18:12:00,48.0,43.0,29.90,South,187,0.0,0.0,84,-99.99,,,-99.99,,2013-01-01 23:12:00,
2013-01-01 18:22:00,47.0,43.0,29.90,SSW,199,0.0,4.0,85,-99.99,,,-99.99,,2013-01-01 23:22:00,
2013-01-01 18:32:00,47.0,42.0,29.90,South,191,0.0,0.0,84,-99.99,,,-99.99,,2013-01-01 23:32:00,
2013-01-01 18:42:00,47.0,42.0,29.90,South,191,0.0,0.0,84,-99.99,,,-99.99,,2013-01-01 23:42:00,
2013-01-01 18:53:00,47.0,43.0,29.90,SE,139,1.0,2.0,85,-99.99,,,-99.99,,2013-01-01 23:53:00,
2013-01-01 19:03:00,47.0,43.0,29.90,ESE,111,0.0,3.0,87,-99.99,,,-99.99,,2013-01-02 00:03:00,
2013-01-01 19:12:00,47.0,43.0,29.90,ESE,111,0.0,3.0,87,-99.99,,,-99.99,,2013-01-02 00:12:00,
2013-01-01 19:22:00,47.0,44.0,29.91,ESE,111,0.0,0.0,88,-99.99,,,-99.99,,2013-01-02 00:22:00,
2013-01-01 19:32:00,47.0,43.0,29.92,ESE,111,0.0,0.0,87,-99.99,,,-99.99,,2013-01-02 00:32:00,
2013-01-01 19:43:00,47.0,43.0,29.92,ESE,111,0.0,0.0,87,-99.99,,,-99.99,,2013-01-02 00:43:00,
2013-01-01 19:52:00,47.0,43.0,29.93,ESE,111,0.0,0.0,87,-99.99,,,-99.99,,2013-01-02 00:52:00,
2013-01-01 20:02:00,47.0,44.0,29.91,SE,132,2.0,0.0,88,-99.99,,,-99.99,,2013-01-02 01:02:00,
2013-01-01 20:12:00,47.0,44.0,29.91,SE,132,2.0,0.0,88,-99.99,,,-99.99,,2013-01-02 01:12:00,
2013-01-01 20:22:00,46.0,44.0,29.92,SSE,149,0.0,1.0,92,-99.99,,,-99.99,,2013-01-02 01:22:00,
2013-01-01 20:32:00,45.0,44.0,29.91,SSE,149,0.0,0.0,95,-99.99,,,-99.99,,2013-01-02 01:32:00,
2013-01-01 20:42:00,45.0,44.0,29.91,SSE,149,0.0,0.0,95,-99.99,,,-99.99,,2013-01-02 01:42:00,
2013-01-01 20:53:00,45.0,44.0,29.90,SSE,149,0.0,0.0,96,-99.99,,,-99.99,,2013-01-02 01:53:00,
2013-01-01 21:02:00,44.0,43.0,29.91,SSE,149,0.0,0.0,97,-99.99,,,-99.99,,2013-01-02 02:02:00,
2013-01-01 21:12:00,44.0,43.0,29.91,SSE,149,0.0,0.0,97,-99.99,,,-99.99,,2013-01-02 02:12:00,
2013-01-01 21:22:00,44.0,43.0,29.91,SSE,149,0.0,0.0,97,-99.99,,,-99.99,,2013-01-02 02:22:00,
2013-01-01 21:32:00,45.0,44.0,29.91,SSE,149,0.0,0.0,97,-99.99,,,-99.99,,2013-01-02 02:32:00,
2013-01-01 21:42:00,45.0,44.0,29.91,SSE,149,0.0,0.0,97,-99.99,,,-99.99,,2013-01-02 02:42:00,
2013-01-01 21:52:00,45.0,44.0,29.92,SSE,149,0.0,0.0,97,-99.99,,,-99.99,,2013-01-02 02:52:00,
2013-01-01 22:02:00,44.0,43.0,29.92,SSE,149,0.0,0.0,97,-99.99,,,-99.99,,2013-01-02 03:02:00,
2013-01-01 22:12:00,44.0,43.0,29.92,SSE,149,0.0,0.0,97,-99.99,,,-99.99,,2013-01-02 03:12:00,
2013-01-01 22:22:00,45.0,44.0,29.92,SSE,149,0.0,0.0,97,-99.99,,,-99.99,,2013-01-02 03:22:00,
2013-01-01 22:32:00,45.0,44.0,29.92,SSE,149,0.0,0.0,97,-99.99,,,-99.99,,2013-01-02 03:32:00,
2013-01-01 22:42:00,45.0,44.0,29.92,SSE,149,0.0,0.0,97,-99.99,,,-99.99,,2013-01-02 03:42:00,
2013-01-01 22:53:00,45.0,44.0,29.93,SSW,203,0.0,0.0,97,-99.99,,,-99.99,,2013-01-02 03:53:00,
2013-01-01 23:03:00,44.0,43.0,29.93,SSW,203,0.0,0.0,98,-99.99,,,-99.99,,2013-01-02 04:03:00,
2013-01-01 23:12:00,44.0,43.0,29.93,SSW,203,0.0,0.0,98,-99.99,,,-99.99,,2013-01-02 04:12:00,
2013-01-01 23:22:00,44.0,43.0,29.93,SSW,203,0.0,0.0,98,-99.99,,,-99.99,,2013-01-02 04:22:00,
2013-01-01 23:32:00,44.0,43.0,29.93,SSW,203,0.0,0.0,98,-99.99,,,-99.99,,2013-01-02 04:32:00,
2013-01-01 23:42:00,44.0,43.0,29.93,SSW,203,0.0,0.0,98,-99.99,,,-99.99,,2013-01-02 04:42:00,
2013-01-01 23:52:00,44.0,43.0,29.93,SSW,203,0.0,0.0,98,-99.99,,,-99.99,,2013-01-02 04:52:00,